Weather at Abilene Executive Airpark

Public forecast

Using degrees Fahrenheit for public forecast. Weather courtesy of forecast.io.

Closest aviation weather report (METAR) to Abilene Executive Airpark

Closest report is Abilene Regional Airport, 3.9 nm (7.2 km) SW. Retrieved 2021/07/24 22:52 UTC (35 minutes ago):

KABI 242252Z 15011G16KT 10SM CLR 37/17 A2997 RMK AO2 SLP119 T03720167

Closest aviation forecast (TAF) to Abilene Executive Airpark

Closest forecast is Abilene Regional Airport, 3.9 nm (7.2 km) SW. Retrieved 2021/07/24 18:22 UTC (5 hours ago):

TAF KABI 241720Z 2418/2518 18013G21KT P6SM SKC FM250100 14009KT P6SM FEW250